Time;durP1;ratioP1;P1;durP2;ratioP2;P2;SDS_P1;SDS_P2;PMS_P1;PMS_P2;Temp;Humidity;BMP_temperature;BMP_pressure;BME280_temperature;BME280_humidity;BME280_pressure;Samples;Min_cycle;Max_cycle;Signal;HPM_P1;HPM_P2
2022/06/05 00:00:10;;;;;;;10.77;7.60;;;;;;;19.05;62.03;101557.09;5100051;28;20467;-66
2022/06/05 00:02:42;;;;;;;9.13;7.43;;;;;;;19.02;62.09;101567.84;5100025;28;20085;-65
2022/06/05 00:05:22;;;;;;;11.27;6.97;;;;;;;18.96;62.11;101565.41;5099747;28;20035;-66
2022/06/05 00:08:06;;;;;;;8.27;7.05;;;;;;;18.99;61.91;101565.28;5099823;28;20024;-66
2022/06/05 00:10:39;;;;;;;8.23;6.35;;;;;;;18.97;62.37;101548.56;5101331;28;20047;-64
2022/06/05 00:13:25;;;;;;;10.07;7.40;;;;;;;18.93;62.35;101548.72;5101123;28;20442;-62
2022/06/05 00:15:50;;;;;;;10.43;7.13;;;;;;;18.85;62.53;101538.41;5101481;28;20176;-63
2022/06/05 00:18:16;;;;;;;8.60;7.10;;;;;;;18.87;62.55;101539.22;5101766;28;20100;-62
2022/06/05 00:20:42;;;;;;;8.77;7.20;;;;;;;18.82;62.65;101530.56;5101499;28;20031;-63
2022/06/05 00:23:09;;;;;;;8.43;6.68;;;;;;;18.83;62.74;101542.03;5101224;28;20043;-63
2022/06/05 00:26:00;;;;;;;8.63;6.95;;;;;;;18.82;62.01;101541.16;5100802;28;20158;-62
2022/06/05 00:28:39;;;;;;;7.22;6.53;;;;;;;18.77;62.34;101536.03;5101422;28;20059;-61
2022/06/05 00:31:20;;;;;;;7.78;6.60;;;;;;;18.77;62.14;101529.84;5101524;28;20099;-63
2022/06/05 00:33:45;;;;;;;9.27;6.97;;;;;;;18.74;62.60;101530.84;5101348;28;20032;-61
2022/06/05 00:36:41;;;;;;;7.70;6.80;;;;;;;18.78;62.57;101523.63;5101242;28;20111;-63
2022/06/05 00:39:29;;;;;;;9.82;6.95;;;;;;;18.78;62.43;101508.59;5101615;28;20035;-64
2022/06/05 00:42:00;;;;;;;8.60;6.45;;;;;;;18.70;62.55;101509.81;5101372;28;20346;-62
2022/06/05 00:44:30;;;;;;;7.88;6.35;;;;;;;18.64;62.52;101508.22;5101083;28;20052;-62
2022/06/05 00:46:57;;;;;;;7.93;6.57;;;;;;;18.66;62.51;101526.75;5101196;28;20027;-64
2022/06/05 00:49:27;;;;;;;7.65;6.57;;;;;;;18.59;62.50;101514.63;5109940;28;20082;-63
2022/06/05 00:51:53;;;;;;;8.73;6.07;;;;;;;18.58;63.15;101513.72;5118656;28;20100;-63
2022/06/05 00:54:18;;;;;;;8.10;6.93;;;;;;;18.53;63.32;101506.88;5118702;28;20031;-63
2022/06/05 00:56:44;;;;;;;7.43;6.63;;;;;;;18.57;63.27;101511.13;5118468;28;20415;-62
2022/06/05 00:59:12;;;;;;;7.30;6.32;;;;;;;18.51;63.68;101509.56;5118404;28;20028;-63
2022/06/05 01:01:38;;;;;;;10.35;6.55;;;;;;;18.53;63.45;101510.34;5118243;28;20031;-62
2022/06/05 01:04:04;;;;;;;7.25;6.50;;;;;;;18.49;63.31;101510.53;5118017;28;20034;-62
2022/06/05 01:06:30;;;;;;;8.30;6.28;;;;;;;18.46;63.44;101515.94;5118230;28;20032;-62
2022/06/05 01:08:55;;;;;;;6.93;6.15;;;;;;;18.41;63.23;101513.44;5118220;28;20061;-63
2022/06/05 01:11:26;;;;;;;8.25;6.40;;;;;;;18.44;63.19;101516.00;5117988;28;20050;-62
2022/06/05 01:14:12;;;;;;;8.50;6.72;;;;;;;18.46;63.21;101514.16;5118234;28;20331;-63
2022/06/05 01:16:54;;;;;;;7.93;6.50;;;;;;;18.44;63.33;101505.41;5118179;28;20067;-63
2022/06/05 01:19:37;;;;;;;9.48;6.63;;;;;;;18.52;63.36;101523.69;5118120;28;20038;-62
2022/06/05 01:22:05;;;;;;;8.60;6.65;;;;;;;18.47;63.23;101525.63;5117715;28;20100;-62
2022/06/05 01:25:08;;;;;;;8.75;6.93;;;;;;;18.67;62.97;101592.97;5117797;28;20148;-62
2022/06/05 01:27:39;;;;;;;8.25;7.32;;;;;;;18.61;63.44;101573.75;5117782;28;20050;-63
2022/06/05 01:30:22;;;;;;;8.27;7.05;;;;;;;18.61;63.14;101534.84;5117523;28;20042;-62
2022/06/05 01:33:00;;;;;;;7.72;6.35;;;;;;;18.63;64.32;101587.81;5117588;28;20028;-63
2022/06/05 01:35:51;;;;;;;9.20;7.28;;;;;;;18.66;63.51;101580.63;5117637;28;20024;-63
2022/06/05 01:38:29;;;;;;;7.78;7.00;;;;;;;18.68;63.74;101525.78;5117669;28;20331;-61
2022/06/05 01:40:57;;;;;;;9.60;6.82;;;;;;;18.61;64.42;101521.59;5117327;28;20077;-61
2022/06/05 01:43:32;;;;;;;7.90;6.53;;;;;;;18.64;64.39;101547.13;5117330;28;20032;-62
2022/06/05 01:46:06;;;;;;;7.65;6.80;;;;;;;18.55;64.67;101529.72;5117606;28;20028;-62
2022/06/05 01:48:49;;;;;;;6.90;6.20;;;;;;;18.66;64.57;101540.00;5117479;28;20044;-62
2022/06/05 01:52:02;;;;;;;7.00;6.22;;;;;;;18.66;64.41;101519.66;5117113;28;20032;-61
2022/06/05 01:54:30;;;;;;;;;;;;;;;18.69;63.54;101511.59;5085714;28;20043;-62
2022/06/05 01:56:58;;;;;;;6.50;5.75;;;;;;;18.60;65.35;101511.03;5117238;28;20065;-62
2022/06/05 01:59:34;;;;;;;7.10;6.40;;;;;;;18.59;65.15;101504.88;5117044;28;20035;-61
2022/06/05 02:02:02;;;;;;;7.10;6.47;;;;;;;18.59;65.01;101494.28;5116691;27;20031;-62
2022/06/05 02:04:38;;;;;;;8.02;6.60;;;;;;;18.52;65.20;101486.59;5117185;28;20024;-63
2022/06/05 02:07:27;;;;;;;7.07;6.45;;;;;;;18.48;65.43;101477.00;5116964;28;20038;-62
2022/06/05 02:10:03;;;;;;;8.38;7.20;;;;;;;18.40;65.65;101474.63;5102405;28;20442;-62
2022/06/05 02:12:28;;;;;;;8.02;6.85;;;;;;;18.28;67.52;101467.09;5116803;28;20347;-61
2022/06/05 02:14:55;;;;;;;10.57;8.13;;;;;;;18.02;68.48;101463.56;5116778;28;20036;-62
2022/06/05 02:17:20;;;;;;;8.50;7.57;;;;;;;17.96;69.66;101449.69;5116652;28;20035;-61
2022/06/05 02:19:45;;;;;;;7.78;7.07;;;;;;;17.88;70.18;101438.47;5116792;28;20412;-63
2022/06/05 02:22:18;;;;;;;8.95;8.00;;;;;;;17.82;69.02;101428.13;5116874;28;20027;-62
2022/06/05 02:24:44;;;;;;;9.90;8.05;;;;;;;17.79;68.79;101431.72;5116547;28;20047;-62
2022/06/05 02:27:09;;;;;;;8.93;7.72;;;;;;;17.82;68.22;101434.28;5116487;28;20062;-63
2022/06/05 02:29:36;;;;;;;9.70;8.43;;;;;;;17.81;68.03;101413.16;5116094;28;20063;-63
2022/06/05 02:32:31;;;;;;;8.90;7.95;;;;;;;17.81;67.69;101405.22;5116470;28;20035;-62
2022/06/05 02:35:10;;;;;;;11.98;9.70;;;;;;;17.43;74.55;101407.31;5115901;28;20388;-62
2022/06/05 02:38:02;;;;;;;12.30;10.05;;;;;;;16.51;80.64;101405.72;5116276;28;20027;-64
2022/06/05 02:40:42;;;;;;;12.32;10.20;;;;;;;15.89;84.26;101389.88;5116622;28;20060;-63
2022/06/05 02:43:45;;;;;;;14.30;10.55;;;;;;;15.60;84.27;101387.97;5116116;28;20350;-62
2022/06/05 02:46:22;;;;;;;10.95;9.88;;;;;;;15.52;86.85;101379.34;5116298;28;20039;-62
2022/06/05 02:48:53;;;;;;;11.05;9.30;;;;;;;15.53;86.47;101378.47;5116339;28;20434;-63
2022/06/05 02:51:22;;;;;;;13.77;10.82;;;;;;;15.48;87.83;101365.38;5116309;28;20339;-64
2022/06/05 02:53:55;;;;;;;12.82;10.25;;;;;;;15.28;88.26;101362.34;5115620;28;20030;-62
2022/06/05 02:56:22;;;;;;;11.15;10.05;;;;;;;15.17;89.47;101352.09;5116037;28;20089;-61
2022/06/05 02:58:49;;;;;;;11.75;9.70;;;;;;;15.23;87.06;101357.22;5116216;28;20118;-61
2022/06/05 03:03:58;;;;;;;11.38;9.38;;;;;;;15.68;82.95;101330.59;5115991;28;20411;-63
2022/06/05 03:06:24;;;;;;;10.75;9.65;;;;;;;15.92;81.60;101326.44;5115757;28;20146;-62
2022/06/05 03:08:49;;;;;;;11.15;8.98;;;;;;;16.04;80.90;101331.38;5116131;28;20020;-62
2022/06/05 03:11:15;;;;;;;10.68;8.70;;;;;;;16.28;78.73;101321.84;5115884;28;20031;-62
2022/06/05 03:13:40;;;;;;;10.40;9.07;;;;;;;16.38;76.90;101318.06;5115460;28;20058;-62
2022/06/05 03:16:08;;;;;;;10.32;8.38;;;;;;;16.47;76.25;101325.69;5115751;28;20344;-62
2022/06/05 03:18:33;;;;;;;11.57;8.35;;;;;;;16.47;76.20;101312.47;5115505;28;20027;-62
2022/06/05 03:20:59;;;;;;;10.65;8.63;;;;;;;16.45;76.14;101311.66;5115778;28;20043;-62
2022/06/05 03:23:26;;;;;;;9.65;7.90;;;;;;;16.45;76.57;101321.38;5115922;28;20351;-63
2022/06/05 03:25:51;;;;;;;9.73;8.02;;;;;;;16.51;74.92;101329.97;5115620;28;20115;-63
2022/06/05 03:28:17;;;;;;;9.70;8.45;;;;;;;16.47;74.60;101316.91;5115561;28;20031;-62
2022/06/05 03:30:43;;;;;;;10.70;7.72;;;;;;;16.68;75.23;101338.28;5115684;28;20042;-61
2022/06/05 03:33:09;;;;;;;11.48;9.43;;;;;;;16.68;74.57;101348.84;5115541;28;20031;-62
2022/06/05 03:35:40;;;;;;;10.95;8.82;;;;;;;16.72;74.04;101352.28;5115350;28;20074;-61
2022/06/05 03:38:06;;;;;;;11.07;8.65;;;;;;;16.75;74.30;101352.19;5115700;28;20038;-63
2022/06/05 03:40:32;;;;;;;12.80;8.60;;;;;;;16.77;73.79;101357.44;5115667;28;20043;-62
2022/06/05 03:42:58;;;;;;;10.20;8.57;;;;;;;16.73;73.35;101348.72;5115327;28;20035;-64
2022/06/05 03:45:24;;;;;;;11.30;8.88;;;;;;;16.71;73.51;101347.91;5115363;28;20032;-64
2022/06/05 03:47:50;;;;;;;12.88;8.73;;;;;;;16.69;73.40;101349.72;5115775;28;20031;-64
2022/06/05 03:50:17;;;;;;;11.55;8.35;;;;;;;16.66;72.77;101352.47;5115249;28;20027;-63
2022/06/05 03:52:43;;;;;;;10.73;8.80;;;;;;;16.69;73.38;101352.38;5115616;28;20023;-62
2022/06/05 03:55:12;;;;;;;10.93;8.60;;;;;;;16.63;73.20;101349.91;5115309;28;20027;-64
2022/06/05 03:57:38;;;;;;;11.95;8.45;;;;;;;16.64;73.12;101352.50;5115219;28;20446;-62
2022/06/05 04:00:05;;;;;;;9.77;8.38;;;;;;;16.67;72.93;101362.97;5115317;28;20023;-63
2022/06/05 04:02:31;;;;;;;10.95;8.30;;;;;;;16.75;72.88;101357.47;5115492;28;20027;-63
2022/06/05 04:04:56;;;;;;;9.52;7.50;;;;;;;16.76;72.45;101363.63;5114929;28;20088;-64
2022/06/05 04:07:22;;;;;;;10.48;8.13;;;;;;;16.73;72.47;101353.16;5115219;28;20027;-63
2022/06/05 04:09:47;;;;;;;10.32;8.48;;;;;;;16.70;72.07;101351.47;5115469;28;20039;-62
2022/06/05 04:12:12;;;;;;;9.35;8.32;;;;;;;16.67;72.46;101349.78;5115178;28;20334;-63
2022/06/05 04:14:37;;;;;;;10.38;7.97;;;;;;;16.70;72.38;101346.16;5115124;28;20024;-61
2022/06/05 04:17:03;;;;;;;11.55;8.10;;;;;;;16.72;71.86;101339.06;5114982;28;20450;-62
2022/06/05 04:19:28;;;;;;;11.02;7.95;;;;;;;16.74;72.16;101337.25;5114944;28;20096;-62
2022/06/05 04:21:53;;;;;;;10.88;8.32;;;;;;;16.68;72.14;101329.50;5115158;28;20035;-62
2022/06/05 04:24:20;;;;;;;10.43;8.25;;;;;;;16.63;71.64;101336.69;5114609;28;20069;-63
2022/06/05 04:26:46;;;;;;;11.57;8.13;;;;;;;16.60;72.15;101329.72;5118823;28;20430;-63
2022/06/05 04:29:12;;;;;;;10.95;8.60;;;;;;;16.55;72.05;101326.34;5118708;28;20040;-64
2022/06/05 04:31:44;;;;;;;10.15;8.40;;;;;;;16.55;71.79;101330.75;5118632;28;20035;-63
2022/06/05 04:34:10;;;;;;;;;;;;;;;16.57;71.33;101329.81;5119341;28;20036;-63
2022/06/05 04:36:36;;;;;;;12.00;8.60;;;;;;;16.53;72.16;101336.09;5118769;28;19915;-62
2022/06/05 04:39:02;;;;;;;12.77;8.75;;;;;;;16.55;72.06;101336.03;5118815;28;20100;-65
2022/06/05 04:41:27;;;;;;;13.60;8.68;;;;;;;16.58;71.88;101330.66;5118564;28;20434;-63
2022/06/05 04:43:55;;;;;;;10.85;7.85;;;;;;;16.64;72.11;101335.78;5118576;28;20045;-64
2022/06/05 04:46:22;;;;;;;11.07;8.30;;;;;;;16.65;71.85;101332.22;5118318;28;20100;-63
2022/06/05 04:48:48;;;;;;;10.20;8.25;;;;;;;16.70;72.14;101330.31;5118646;28;20119;-61
2022/06/05 04:51:15;;;;;;;9.68;8.48;;;;;;;16.68;71.52;101329.50;5118461;28;20085;-63
2022/06/05 04:53:41;;;;;;;10.23;7.70;;;;;;;16.72;71.41;101327.63;5118560;28;20350;-61
2022/06/05 04:56:11;;;;;;;10.85;7.90;;;;;;;16.73;70.94;101330.22;5099486;28;20032;-64
2022/06/05 04:58:36;;;;;;;9.90;7.90;;;;;;;16.66;71.70;101331.31;5097924;28;20051;-63
2022/06/05 05:01:17;;;;;;;12.35;8.32;;;;;;;16.65;71.65;101334.88;5079900;28;20044;-62
2022/06/05 05:03:43;;;;;;;10.27;8.55;;;;;;;16.64;71.73;101335.78;5097787;28;20067;-61
2022/06/05 05:06:09;;;;;;;11.40;8.13;;;;;;;16.59;71.73;101330.63;5097901;28;20028;-64
2022/06/05 05:08:34;;;;;;;10.82;7.78;;;;;;;16.62;72.46;101337.59;5098004;28;20051;-63
2022/06/05 05:11:00;;;;;;;11.07;8.50;;;;;;;16.65;71.79;101340.16;5097996;28;20024;-63
2022/06/05 05:13:26;;;;;;;11.50;8.07;;;;;;;16.70;71.33;101340.88;5097659;28;20093;-63
2022/06/05 05:15:53;;;;;;;9.65;8.20;;;;;;;16.75;71.77;101338.97;5097530;28;20031;-63
2022/06/05 05:18:20;;;;;;;12.00;8.32;;;;;;;16.77;70.96;101345.09;5097590;28;20028;-63
2022/06/05 05:20:46;;;;;;;11.57;8.15;;;;;;;16.77;71.06;101334.50;5097247;28;20039;-63
2022/06/05 05:23:12;;;;;;;12.10;8.35;;;;;;;16.82;71.00;101343.13;5097375;28;20051;-63
2022/06/05 05:25:37;;;;;;;10.95;8.27;;;;;;;16.87;70.45;101341.22;5097467;28;20044;-63
2022/06/05 05:28:06;;;;;;;10.73;8.23;;;;;;;16.93;70.22;101341.03;5097456;28;20135;-62
2022/06/05 05:30:32;;;;;;;11.23;8.63;;;;;;;16.96;70.42;101343.59;5079806;28;20093;-63
2022/06/05 05:32:57;;;;;;;8.82;7.85;;;;;;;17.00;70.36;101334.63;5097260;28;20378;-62
2022/06/05 05:35:23;;;;;;;11.18;8.45;;;;;;;17.03;70.07;101339.81;5096867;28;20077;-64
2022/06/05 05:37:48;;;;;;;13.45;8.63;;;;;;;17.09;69.82;101336.13;5097486;28;20107;-62
2022/06/05 05:42:57;;;;;;;8.88;7.68;;;;;;;17.16;70.26;101334.13;5096595;28;20050;-64
2022/06/05 05:45:23;;;;;;;10.07;8.15;;;;;;;17.25;69.92;101342.66;5096827;28;20032;-64
2022/06/05 05:47:48;;;;;;;9.50;8.27;;;;;;;17.24;69.81;101338.25;5096802;28;20416;-62
2022/06/05 05:50:17;;;;;;;10.65;8.10;;;;;;;17.25;70.11;101333.84;5096989;28;20032;-63
2022/06/05 05:52:44;;;;;;;9.27;7.53;;;;;;;17.35;69.44;101336.13;5097033;28;20035;-63
2022/06/05 05:55:15;;;;;;;8.85;7.80;;;;;;;17.39;69.61;101332.47;5096739;28;20043;-63
2022/06/05 05:57:41;;;;;;;9.63;7.88;;;;;;;17.38;69.11;101328.09;5096739;28;20047;-63
2022/06/05 06:00:11;;;;;;;11.98;8.25;;;;;;;17.42;69.33;101320.03;5096514;28;20032;-64
2022/06/05 06:02:37;;;;;;;13.63;8.20;;;;;;;17.35;69.44;101309.66;5096887;28;20040;-64
2022/06/05 06:05:03;;;;;;;8.93;8.02;;;;;;;17.35;69.20;101303.50;5096126;28;20028;-62
2022/06/05 06:07:29;;;;;;;10.52;7.90;;;;;;;17.38;69.95;101306.06;5096360;28;20342;-63
2022/06/05 06:09:55;;;;;;;10.35;8.73;;;;;;;17.40;69.54;101299.78;5096477;28;20115;-63
2022/06/05 06:12:20;;;;;;;9.80;8.30;;;;;;;17.40;69.33;101297.16;5096559;28;20032;-64
2022/06/05 06:14:46;;;;;;;9.68;8.13;;;;;;;17.45;69.49;101288.19;5096776;28;20028;-63
2022/06/05 06:17:11;;;;;;;10.95;8.23;;;;;;;17.48;69.21;101283.66;5096350;28;20036;-63
2022/06/05 06:19:37;;;;;;;11.57;8.55;;;;;;;17.52;69.46;101279.09;5096284;28;20058;-62
2022/06/05 06:22:04;;;;;;;11.10;8.43;;;;;;;17.57;69.34;101266.59;5095578;28;20047;-63
2022/06/05 06:24:29;;;;;;;12.52;8.27;;;;;;;17.64;68.89;101276.09;5096359;28;20060;-61
2022/06/05 06:26:54;;;;;;;10.15;8.32;;;;;;;17.75;69.25;101271.25;5096377;28;20050;-63
2022/06/05 06:29:20;;;;;;;11.38;8.38;;;;;;;17.86;68.67;101263.78;5095959;28;20445;-62
2022/06/05 06:31:45;;;;;;;10.73;8.00;;;;;;;17.96;68.99;101264.31;5096141;28;20028;-64
2022/06/05 06:34:11;;;;;;;11.15;8.57;;;;;;;17.94;68.24;101239.66;5096335;28;20059;-63
2022/06/05 06:36:36;;;;;;;9.43;8.43;;;;;;;18.13;68.13;101256.59;5096035;28;20028;-64
2022/06/05 06:39:03;;;;;;;12.27;7.97;;;;;;;18.25;67.82;101239.34;5096000;28;20034;-64
2022/06/05 06:41:28;;;;;;;12.02;8.93;;;;;;;18.28;67.36;101234.81;5095478;28;20523;-65
2022/06/05 06:43:54;;;;;;;9.77;8.32;;;;;;;18.30;67.38;101235.63;5105439;28;20141;-62
2022/06/05 06:46:20;;;;;;;12.60;8.40;;;;;;;18.31;67.71;101228.53;5116646;28;20344;-64
2022/06/05 06:48:45;;;;;;;9.68;8.05;;;;;;;18.39;67.82;101229.94;5115661;28;20059;-62
2022/06/05 06:51:11;;;;;;;12.05;8.52;;;;;;;18.51;67.30;101225.97;5116131;28;20353;-64
2022/06/05 06:53:39;;;;;;;11.55;8.95;;;;;;;18.54;67.09;101224.94;5116212;28;20042;-63
2022/06/05 06:56:16;;;;;;;11.80;8.80;;;;;;;18.58;67.82;101234.50;5116152;28;20028;-64
2022/06/05 06:58:43;;;;;;;10.80;9.05;;;;;;;18.69;66.83;101240.28;5098412;28;20320;-64
2022/06/05 07:01:09;;;;;;;10.10;8.23;;;;;;;18.76;66.50;101234.66;5116176;28;20027;-64
2022/06/05 07:03:36;;;;;;;11.40;8.50;;;;;;;18.88;66.49;101224.47;5115996;28;20042;-64
2022/06/05 07:06:03;;;;;;;11.00;8.38;;;;;;;18.95;66.01;101229.47;5115659;28;20080;-65
2022/06/05 07:08:28;;;;;;;9.88;8.60;;;;;;;18.98;65.70;101226.69;5115830;28;20354;-66
2022/06/05 07:10:54;;;;;;;11.23;9.05;;;;;;;18.97;66.65;101222.31;5115499;28;20031;-65
2022/06/05 07:13:19;;;;;;;10.70;9.00;;;;;;;19.12;66.20;101216.34;5115516;28;20038;-66
2022/06/05 07:15:45;;;;;;;11.77;8.95;;;;;;;19.32;66.05;101204.00;5115613;28;20065;-66
2022/06/05 07:18:10;;;;;;;9.55;8.52;;;;;;;19.49;65.20;101214.75;5115223;28;20035;-67
2022/06/05 07:20:38;;;;;;;11.07;8.63;;;;;;;19.58;65.06;101198.41;5115440;28;20454;-66
2022/06/05 07:23:05;;;;;;;11.18;8.60;;;;;;;19.68;64.57;101210.38;5115756;28;20020;-66
2022/06/05 07:25:32;;;;;;;10.55;8.52;;;;;;;19.79;64.86;101208.06;5115678;28;20366;-65
2022/06/05 07:27:57;;;;;;;11.00;8.68;;;;;;;19.83;64.76;101199.97;5115615;28;20043;-65
2022/06/05 07:30:24;;;;;;;11.73;8.93;;;;;;;19.90;63.79;101198.78;5106316;28;20024;-65
2022/06/05 07:32:50;;;;;;;10.00;8.73;;;;;;;19.97;63.83;101194.88;5104911;28;20024;-66
2022/06/05 07:35:16;;;;;;;10.70;8.55;;;;;;;20.08;63.44;101198.78;5094807;28;20329;-66
2022/06/05 07:37:41;;;;;;;9.80;8.88;;;;;;;20.12;63.33;101191.50;5094983;28;20046;-65
2022/06/05 07:40:08;;;;;;;11.32;8.90;;;;;;;20.14;64.46;101189.63;5095050;28;20024;-65
2022/06/05 07:42:38;;;;;;;11.10;9.00;;;;;;;20.21;63.52;101188.41;5094876;28;20036;-65
2022/06/05 07:45:05;;;;;;;10.90;9.48;;;;;;;20.29;63.35;101193.34;5095075;28;20032;-56
2022/06/05 07:47:31;;;;;;;11.43;9.13;;;;;;;20.33;63.07;101184.28;5095122;28;20051;-66
2022/06/05 07:49:57;;;;;;;10.48;9.48;;;;;;;20.39;63.33;101192.03;5095012;28;20512;-65
2022/06/05 07:55:07;;;;;;;10.20;9.23;;;;;;;20.53;62.84;101178.91;5095418;28;20121;-65
2022/06/05 07:57:32;;;;;;;10.38;8.98;;;;;;;20.53;63.20;101175.38;5094991;28;20415;-65
2022/06/05 07:59:58;;;;;;;10.30;9.13;;;;;;;20.59;63.35;101161.78;5097748;28;20107;-64
2022/06/05 08:02:26;;;;;;;10.65;9.43;;;;;;;20.61;63.07;101167.88;5098896;28;20046;-65
2022/06/05 08:04:54;;;;;;;11.27;9.90;;;;;;;20.62;63.17;101162.47;5099105;28;20067;-65
2022/06/05 08:07:22;;;;;;;10.60;9.35;;;;;;;20.78;63.16;101155.44;5098688;28;20036;-66
2022/06/05 08:09:47;;;;;;;10.77;9.68;;;;;;;20.82;62.58;101148.19;5098499;28;20093;-65
2022/06/05 08:12:15;;;;;;;12.73;9.73;;;;;;;20.80;63.52;101147.38;5099086;28;20024;-66
2022/06/05 08:14:42;;;;;;;11.85;9.00;;;;;;;20.95;63.40;101146.63;5098886;28;20024;-66
2022/06/05 08:17:11;;;;;;;11.27;9.82;;;;;;;21.02;62.68;101142.69;5098799;28;20054;-66
2022/06/05 08:19:38;;;;;;;11.70;10.13;;;;;;;20.99;63.05;101145.50;5098731;28;20036;-64
2022/06/05 08:22:03;;;;;;;11.15;10.05;;;;;;;21.11;62.64;101144.03;5098503;28;20119;-60
2022/06/05 08:24:29;;;;;;;11.93;10.27;;;;;;;21.18;62.30;101138.28;5105141;28;20119;-59
2022/06/05 08:26:54;;;;;;;11.55;10.18;;;;;;;21.36;63.12;101140.94;5119053;28;20402;-59
2022/06/05 08:29:20;;;;;;;13.93;10.63;;;;;;;21.44;62.18;101126.28;5118987;28;20028;-65
2022/06/05 08:31:46;;;;;;;13.25;10.30;;;;;;;21.63;62.08;101133.28;5118730;28;20042;-64
2022/06/05 08:34:12;;;;;;;11.95;10.75;;;;;;;21.66;61.45;101131.28;5118790;28;20028;-65
2022/06/05 08:36:38;;;;;;;11.98;10.00;;;;;;;21.94;62.13;101133.31;5118675;28;20030;-66
2022/06/05 08:42:11;;;;;;;12.43;11.13;;;;;;;21.97;60.79;101149.13;5098443;28;20466;-67
2022/06/05 08:44:59;;;;;;;12.32;10.30;;;;;;;22.01;60.23;101141.84;5098037;28;20039;-66
2022/06/05 08:47:29;;;;;;;11.90;10.57;;;;;;;22.04;60.98;101145.19;5086818;28;20431;-67
2022/06/05 08:50:13;;;;;;;11.82;10.63;;;;;;;22.01;60.87;101144.50;5098015;28;20028;-65
2022/06/05 08:52:42;;;;;;;12.68;10.63;;;;;;;22.03;60.95;101145.28;5097640;28;20024;-65
2022/06/05 08:55:17;;;;;;;11.95;10.85;;;;;;;22.00;60.76;101140.97;5097999;28;20119;-65
2022/06/05 08:57:50;;;;;;;12.93;11.32;;;;;;;21.97;61.12;101151.78;5097922;28;20043;-66
2022/06/05 09:00:35;;;;;;;12.13;10.93;;;;;;;21.75;61.91;101146.78;5097850;28;20032;-65
2022/06/05 09:03:22;;;;;;;15.18;11.98;;;;;;;21.60;62.16;101144.97;5097584;28;20036;-64
2022/06/05 09:05:51;;;;;;;13.68;12.23;;;;;;;21.46;62.69;101156.38;5097546;28;20106;-65
2022/06/05 09:08:20;;;;;;;13.23;11.40;;;;;;;21.36;63.02;101154.25;5097756;28;20035;-65
2022/06/05 09:10:48;;;;;;;13.20;11.82;;;;;;;21.25;63.35;101153.97;5096840;28;20044;-65
2022/06/05 09:13:24;;;;;;;13.55;11.93;;;;;;;21.24;63.72;101152.25;5098270;28;20028;-64
2022/06/05 09:16:02;;;;;;;13.30;11.88;;;;;;;21.17;64.43;101141.03;5097596;28;20032;-64
2022/06/05 09:18:37;;;;;;;13.10;11.70;;;;;;;21.21;65.00;101147.09;5097863;28;20032;-65
2022/06/05 09:21:09;;;;;;;12.85;11.65;;;;;;;21.11;64.91;101147.56;5097683;28;20036;-65
2022/06/05 09:23:42;;;;;;;12.75;11.32;;;;;;;21.17;65.38;101144.56;5097202;28;20028;-64
2022/06/05 09:26:13;;;;;;;13.38;11.98;;;;;;;21.11;65.02;101141.38;5097523;28;20028;-65
2022/06/05 09:28:44;;;;;;;13.45;12.15;;;;;;;21.08;65.53;101139.72;5097759;28;20036;-66
2022/06/05 09:31:29;;;;;;;14.65;12.00;;;;;;;21.07;65.69;101142.47;5097192;28;20043;-62
2022/06/05 09:33:57;;;;;;;13.27;11.90;;;;;;;20.95;65.83;101141.31;5097553;28;20031;-64
2022/06/05 09:36:26;;;;;;;13.55;11.32;;;;;;;20.85;66.36;101129.41;5097092;28;20035;-64
2022/06/05 09:38:59;;;;;;;12.95;11.65;;;;;;;20.90;66.54;101138.03;5096905;28;20490;-63
2022/06/05 09:41:58;;;;;;;13.27;11.90;;;;;;;20.94;66.18;101126.28;5097381;28;20028;-65
2022/06/05 09:44:26;;;;;;;13.18;11.77;;;;;;;20.96;66.74;101124.38;5096837;28;20035;-64
2022/06/05 09:46:59;;;;;;;13.00;10.80;;;;;;;20.83;66.62;101116.19;5096248;28;20070;-66
2022/06/05 09:49:27;;;;;;;13.00;11.70;;;;;;;20.82;67.16;101119.78;5105854;28;20034;-66
2022/06/05 09:51:53;;;;;;;12.82;11.00;;;;;;;20.76;67.88;101119.25;5100188;28;20031;-65
2022/06/05 09:54:31;;;;;;;13.10;11.60;;;;;;;20.75;67.72;101107.75;5097047;28;20028;-65
2022/06/05 10:00:26;;;;;;;13.05;11.82;;;;;;;20.87;67.86;101094.75;5113155;28;20046;-64
2022/06/05 10:02:55;;;;;;;13.77;12.23;;;;;;;20.83;68.81;101094.91;5117116;28;20035;-64
2022/06/05 10:05:26;;;;;;;12.68;11.48;;;;;;;20.83;69.55;101086.91;5116637;28;20031;-67
2022/06/05 10:07:57;;;;;;;13.18;11.88;;;;;;;20.87;70.51;101081.44;5116114;28;20040;-65
2022/06/05 10:10:36;;;;;;;13.13;11.77;;;;;;;20.94;69.72;101086.38;5116567;28;20043;-65
2022/06/05 10:13:10;;;;;;;13.13;11.80;;;;;;;20.86;70.31;101075.25;5116500;28;20036;-67
2022/06/05 10:15:47;;;;;;;13.30;12.00;;;;;;;20.93;71.59;101083.78;5116195;28;20438;-65
2022/06/05 10:18:30;;;;;;;13.32;12.02;;;;;;;20.92;72.14;101066.09;5115948;28;20054;-65
2022/06/05 10:21:06;;;;;;;14.57;13.07;;;;;;;21.04;72.58;101084.06;5108611;28;20032;-66
2022/06/05 10:23:52;;;;;;;13.90;12.50;;;;;;;21.13;73.05;101081.78;5103988;28;20046;-64
2022/06/05 10:26:34;;;;;;;13.80;12.45;;;;;;;21.23;72.85;101082.19;5104812;28;20043;-65
2022/06/05 10:29:16;;;;;;;13.82;12.43;;;;;;;21.19;74.57;101084.16;5104915;28;20031;-64
2022/06/05 10:31:53;;;;;;;14.82;13.30;;;;;;;21.06;74.44;101085.72;5087113;28;20024;-64
2022/06/05 10:34:22;;;;;;;14.70;12.73;;;;;;;20.91;74.76;101081.22;5105014;28;20032;-66
2022/06/05 10:37:12;;;;;;;14.40;13.00;;;;;;;20.87;73.32;101082.31;5104882;28;20023;-65
2022/06/05 10:39:57;;;;;;;15.00;13.10;;;;;;;20.82;74.63;101081.66;5103787;28;20136;-65
2022/06/05 10:42:25;;;;;;;15.43;14.00;;;;;;;20.78;77.03;101078.31;5105532;28;20073;-65
2022/06/05 10:45:07;;;;;;;16.13;14.60;;;;;;;20.76;76.84;101076.69;5104352;28;20023;-66
2022/06/05 10:47:47;;;;;;;15.10;13.57;;;;;;;20.74;76.62;101074.13;5106293;28;20350;-66
2022/06/05 10:50:34;;;;;;;17.48;14.43;;;;;;;20.63;77.57;101079.09;5105459;28;20467;-63
2022/06/05 10:53:21;;;;;;;18.25;15.10;;;;;;;20.44;78.24;101059.69;5088336;28;20023;-63
2022/06/05 10:55:58;;;;;;;17.50;15.13;;;;;;;20.44;80.11;101081.84;5100637;28;20028;-65
2022/06/05 10:59:06;;;;;;;17.58;15.80;;;;;;;20.40;80.10;101079.44;5095210;28;20112;-65
2022/06/05 11:01:53;;;;;;;17.10;15.50;;;;;;;20.25;83.23;101074.84;5090113;28;20048;-65
2022/06/05 11:04:42;;;;;;;17.60;15.88;;;;;;;20.14;82.91;101072.72;5095031;28;20031;-64
2022/06/05 11:07:43;;;;;;;24.00;18.90;;;;;;;19.96;86.63;101068.28;5077712;28;20423;-64
2022/06/05 11:13:39;;;;;;;20.77;18.67;;;;;;;19.76;88.62;101078.09;5080428;28;20052;-65
2022/06/05 11:13:42;;;;;;;22.42;19.83;;;;;;;19.75;91.90;101080.81;5094943;28;20054;-65
2022/06/05 11:16:16;;;;;;;23.90;21.40;;;;;;;19.66;92.70;101070.63;5095462;28;20398;-63
2022/06/05 11:18:51;;;;;;;24.40;21.85;;;;;;;19.63;94.34;101076.94;5094937;28;20043;-63
2022/06/05 11:21:18;;;;;;;23.75;21.25;;;;;;;19.60;94.46;101070.91;5099120;28;20028;-65
2022/06/05 11:23:48;;;;;;;23.15;20.65;;;;;;;19.55;93.83;101064.97;5104282;28;20039;-64
2022/06/05 11:26:44;;;;;;;22.02;19.85;;;;;;;19.52;93.61;101060.69;5097894;28;20363;-65
2022/06/05 11:29:27;;;;;;;23.98;19.75;;;;;;;19.34;95.46;101061.50;5095150;28;20028;-64
2022/06/05 11:32:20;;;;;;;22.63;20.38;;;;;;;19.24;95.54;101055.72;5095505;28;20453;-64
2022/06/05 11:35:28;;;;;;;26.33;21.75;;;;;;;19.00;98.28;101054.22;5094629;28;20031;-64
2022/06/05 11:37:59;;;;;;;24.67;22.13;;;;;;;18.81;100.00;101048.00;5095019;28;20101;-64
2022/06/05 11:40:24;;;;;;;;;;;;;;;18.82;95.36;101045.28;5095447;28;20028;-64
2022/06/05 11:42:50;;;;;;;26.13;22.00;;;;;;;18.79;100.00;101048.06;5095172;28;20069;-63
2022/06/05 11:45:42;;;;;;;26.37;23.27;;;;;;;18.83;100.00;101047.00;5095197;28;20024;-64
2022/06/05 11:48:17;;;;;;;24.73;22.23;;;;;;;18.90;100.00;101037.84;5094654;28;20032;-65
2022/06/05 11:50:52;;;;;;;27.85;23.13;;;;;;;18.97;100.00;101049.03;5099304;28;20027;-65